Back to Top
Banner_Quays_at_Mast_2020.jpeg
previous arrow
next arrow

Port Departures Report (AIS)

This report is generated from collected AIS (Automated Identification System) signals from vessels leaving port.

IMO MMSI Class Flag Vessel Name Vessel Type Nav Status Destination Call Sign Latitude Longitude Speed (kts) Course (T) Draught (m) LOA (m) Beam (m) Timestamp
0 250004156 A IE F/V BREIZH ARVOR II FISHING. - FISHING EIRX3 51.7016 -8.33393 0 258.4 3.2 23 6 2026-05-08 20:25:31
0 250003677 B IE SIBONEY SAILING. - EI-QT-2 51.6857 -8.49651 4.6 230.7 0 9 4 2026-05-08 19:08:15
0 250006035 B IE VALFREYA SAILING. - EI-XB-6 51.6869 -8.49619 4.3 138.6 0 10 3 2026-05-08 19:06:42
0 250001825 B IE OCEAN RANGER Pleasure craft - EIHP5 51.6866 -8.49771 5 216.1 0 12 5 2026-05-08 15:38:40
0 228213760 B FR ZOU MAIL II SAILING. - FAK8423 51.6859 -8.49937 5.3 189.3 0 13 4 2026-05-08 13:07:18
0 218049970 B DE RESET Pleasure craft - DH3393 51.6869 -8.49979 4.1 172.1 0 12 4 2026-05-08 12:01:41
0 228300560 B FR GENKA 3 SAILING. - FAL9900 51.6862 -8.50106 5.1 173.8 0 12 4 2026-05-08 09:57:32
0 227545840 B FR MURMURE SAILING. - FU5848 51.6862 -8.50133 5.6 174.5 0 14 4 2026-05-08 09:55:05
0 250128490 B IE S.T.Y. TAILTE SAILING. - EIYR 51.6869 -8.50004 6.7 174.6 0 11 4 2026-05-08 09:47:09
8808939 250000527 A IE F/V RACHEL JAY S448 FISHING. - FISHING EI8447 51.6866 -8.49991 5.6 175 0 26 8 2026-05-07 19:59:15
0 250000064 B IE TIR NA NOG OF HOWTH SAILING. - EI7374 51.6831 -8.50113 4 189.6 0 9 2 2026-05-07 15:04:02
0 250001361 B IE ANDROMEDA SAILING. - EI5039 51.6861 -8.49975 5.2 177.5 0 13 4 2026-05-07 14:54:31
0 250005095 B IE GGENESIS SAILING. - EITK2 51.687 -8.4994 4.1 226.8 0 11 4 2026-05-06 19:10:49
0 250004059 B IE JUSTUS SAILING. - EI-RR-6 51.6865 -8.4947 5.8 126.8 0 11 3 2026-05-06 19:10:32
0 250006035 B IE VALFREYA SAILING. - EI-XB-6 51.6861 -8.50165 4.9 210.4 0 10 3 2026-05-06 19:10:29
0 250001875 B IE REAVRA TOO SAILING. - EIHT4 51.6869 -8.49975 4.3 214 0 0 0 2026-05-06 19:10:05
0 250106680 B IE CIRRUS SAILING. - EI7621 51.6869 -8.50071 4 118.4 0 10 4 2026-05-06 19:09:35
0 250006387 B IE AEOLUS SAILING. - EIYS7 51.6864 -8.50028 5.1 179 0 8 4 2026-05-06 12:43:21
0 232007340 B GB MAS Pleasure craft - MAVP5 51.6855 -8.49996 8.7 173.2 0 10 4 2026-05-06 11:50:32
0 235097316 B GB LYRA MAY Pleasure craft - 2GGZ4 51.6858 -8.4993 5.5 187.4 0 13 3 2026-05-06 11:15:09